Latest Weather Observations for Sydney Airport

IDN60901

Issued at 9:21 am EDT Monday 5 December 2016 (issued every 10 minutes, with the page automatically refreshed every 10 minutes)

About weather observations | Map of Sydney area stations | Latest observations for Sydney area | Other Formats
Station Details ID: 066037 Name: SYDNEY AIRPORT AMO Lat: -33.95 Lon: 151.17 Height: 6.0 m
Data from the previous 72 hours. | See also: Recent months at Sydney Airport
Date/Time
EDT
Temp
°C
App
Temp
°C
Dew
Point
°C
Rel
Hum
%
Delta-T
°C
Wind Press
QNH
hPa
Press
MSL
hPa
Rain since
9am
mm
Dir  Spd
km/h
Gust
km/h
Spd
kts
Gust
kts
05/09:00am 26.6 27.2 21.0 71 3.7 NNE 19 24 10 13 1009.4 1009.4 1.2
05/08:30am 25.2 26.3 21.3 79 2.6 N 17 20 9 11 1009.3 1009.3 1.2
05/08:00am 24.8 25.7 21.5 82 2.2 NNE 19 26 10 14 1009.1 1009.1 1.2
05/07:30am 23.6 25.6 21.5 88 1.4 E 13 17 7 9 1009.3 1009.3 1.2
05/07:00am 22.4 22.2 21.3 93 0.7 SE 24 28 13 15 1009.1 1009.1 1.2
05/06:30am 22.3 23.5 21.4 95 0.6 ESE 17 26 9 14 1010.1 1010.1 1.2
05/06:25am 22.4 25.6 21.2 93 0.8 ENE 6 17 3 9 1010.8 1010.8 1.2
05/06:00am 23.1 25.5 21.6 91 1.0 WNW 11 15 6 8 1012.5 1012.5 0.4
05/05:41am 22.2 23.8 21.4 95 0.5 SSW 15 19 8 10 1012.4 1012.4 0.0
05/05:30am 22.1 22.7 21.3 95 0.5 SSE 20 26 11 14 1010.4 1010.4 0.0
05/05:00am 22.1 22.7 21.0 93 0.7 SSE 19 24 10 13 1009.6 1009.6 0.0
05/04:30am 22.0 23.9 20.6 92 0.9 S 11 15 6 8 1009.6 1009.6 0.0
05/04:00am 22.1 24.0 20.6 91 1.0 ESE 11 17 6 9 1008.6 1008.6 0.0
05/03:30am 22.2 24.4 20.5 90 1.1 SE 9 13 5 7 1008.6 1008.6 0.0
05/03:00am 22.2 25.3 20.3 89 1.2 NNE 4 7 2 4 1009.2 1009.2 0.0
05/02:30am 22.3 23.7 20.3 88 1.3 NE 13 15 7 8 1008.9 1008.9 0.0
05/02:00am 22.6 24.4 20.3 87 1.5 NE 11 13 6 7 1009.4 1009.4 0.0
05/01:30am 22.7 24.0 20.1 85 1.7 NE 13 17 7 9 1009.9 1009.9 0.0
05/01:00am 23.4 24.6 19.8 80 2.3 NNE 13 17 7 9 1010.1 1010.1 0.0
05/12:30am 23.5 23.6 19.9 80 2.3 NNE 19 28 10 15 1010.9 1010.9 0.0
05/12:00am 23.1 22.9 19.8 82 2.1 NNE 20 28 11 15 1011.2 1011.2 0.0
 
Date/Time
EDT
Temp
°C
App
Temp
°C
Dew
Point
°C
Rel
Hum
%
Delta-T
°C
Wind Press
QNH
hPa
Press
MSL
hPa
Rain since
9am
mm
Dir  Spd
km/h
Gust
km/h
Spd
kts
Gust
kts
04/11:30pm 23.6 21.9 19.7 79 2.5 NNE 28 35 15 19 1011.2 1011.2 0.0
04/11:00pm 24.0 22.4 19.3 75 3.0 NNE 26 30 14 16 1011.8 1011.8 0.0
04/10:30pm 24.0 23.6 19.3 75 3.0 N 20 26 11 14 1013.0 1013.0 0.0
04/10:00pm 23.8 21.9 19.4 76 2.8 NNE 28 33 15 18 1012.4 1012.4 0.0
04/09:30pm 24.0 23.2 19.3 75 3.0 NNE 22 28 12 15 1012.7 1012.7 0.0
04/09:00pm 24.0 22.2 19.5 76 2.9 NNE 28 37 15 20 1012.6 1012.6 0.0
04/08:30pm 23.8 23.0 19.3 76 2.9 NNE 22 30 12 16 1012.3 1012.3 0.0
04/08:00pm 24.4 22.8 19.1 72 3.4 NE 26 35 14 19 1012.2 1012.2 0.0
04/07:30pm 24.4 22.6 18.7 70 3.6 NE 26 33 14 18 1012.1 1012.1 0.0
04/07:00pm 24.6 21.6 18.6 69 3.8 NE 32 37 17 20 1012.2 1012.2 0.0
04/06:30pm 24.6 21.3 18.3 68 4.0 NE 33 41 18 22 1011.9 1011.9 0.0
04/06:00pm 25.3 22.1 18.5 66 4.3 NE 33 39 18 21 1011.9 1011.9 0.0
04/05:30pm 25.7 22.5 18.5 64 4.6 NE 33 41 18 22 1011.6 1011.6 0.0
04/05:00pm 27.0 23.7 18.0 58 5.7 NE 32 41 17 22 1011.7 1011.7 0.0
04/04:30pm 26.0 22.6 17.7 60 5.2 NE 32 39 17 21 1012.0 1012.0 0.0
04/04:00pm 26.0 22.0 17.5 59 5.3 ENE 35 43 19 23 1012.2 1012.2 0.0
04/03:30pm 27.0 23.2 17.1 54 6.2 ENE 33 39 18 21 1012.7 1012.7 0.0
04/03:00pm 26.2 22.9 16.9 56 5.8 ENE 30 37 16 20 1013.0 1013.0 0.0
04/02:30pm 26.1 22.8 16.9 57 5.7 ENE 30 35 16 19 1013.2 1013.2 0.0
04/02:00pm 25.6 22.6 16.7 58 5.5 ENE 28 33 15 18 1013.5 1013.5 0.0
04/01:30pm 26.1 22.5 16.3 54 6.0 E 30 37 16 20 1013.7 1013.7 0.0
04/01:00pm 26.4 23.7 16.5 54 6.1 ENE 26 41 14 22 1014.3 1014.3 0.0
04/12:30pm 26.4 23.2 16.3 53 6.2 ENE 28 35 15 19 1014.2 1014.2 0.0
04/12:00pm 26.6 24.7 16.6 54 6.2 ENE 22 32 12 17 1014.5 1014.5 0.0
04/11:30am 25.9 25.6 16.5 56 5.8 N 13 19 7 10 1014.8 1014.8 0.0
04/11:00am 26.2 25.5 16.3 54 6.1 NE 15 24 8 13 1015.3 1015.3 0.0
04/10:30am 25.5 24.7 16.2 56 5.7 N 15 22 8 12 1015.5 1015.5 0.0
04/10:00am 25.0 25.0 16.2 58 5.4 NNE 11 17 6 9 1015.7 1015.7 0.0
04/09:30am 25.1 25.4 16.1 57 5.5 NE 9 15 5 8 1015.8 1015.8 0.0
04/09:00am 24.4 24.6 15.8 58 5.2 NE 9 15 5 8 1015.9 1015.9 0.0
04/08:30am 23.8 25.0 16.8 65 4.3 NE 6 9 3 5 1016.0 1016.0 0.0
04/08:00am 22.1 24.1 16.9 72 3.2 NNW 2 9 1 5 1016.1 1016.1 0.0
04/07:30am 21.7 22.9 16.9 74 2.9 WSW 6 11 3 6 1015.8 1015.8 0.0
04/07:00am 21.2 21.8 16.9 76 2.6 WNW 9 15 5 8 1015.6 1015.6 0.0
04/06:30am 20.7 22.1 17.3 81 2.1 ESE 6 11 3 6 1014.8 1014.8 0.0
04/06:00am 19.9 22.5 17.4 85 1.5 CALM 0 0 0 0 1015.5 1015.5 0.0
04/05:30am 19.5 20.6 16.7 84 1.7 SSW 6 7 3 4 1015.6 1015.6 0.0
04/05:00am 19.8 20.7 16.6 82 1.9 SSW 7 9 4 5 1015.7 1015.7 0.0
04/04:30am 20.2 21.3 17.1 82 1.9 S 7 9 4 5 1015.5 1015.5 0.0
04/04:00am 20.0 21.1 17.0 83 1.8 S 7 11 4 6 1015.5 1015.5 0.0
04/03:30am 20.1 20.9 17.3 84 1.7 SW 9 13 5 7 1015.4 1015.4 0.0
04/03:00am 20.3 20.5 16.7 80 2.2 WSW 11 11 6 6 1015.2 1015.2 0.0
04/02:30am 20.4 20.6 16.8 80 2.2 WSW 11 13 6 7 1015.4 1015.4 0.0
04/02:00am 20.7 20.9 16.7 78 2.4 W 11 13 6 7 1015.6 1015.6 0.0
04/01:30am 22.0 22.6 16.7 72 3.2 NW 9 11 5 6 1015.8 1015.8 0.0
04/01:00am 22.0 22.2 16.7 72 3.2 WNW 11 13 6 7 1016.2 1016.2 0.0
04/12:30am 22.4 23.3 16.7 70 3.5 N 7 9 4 5 1016.3 1016.3 0.0
04/12:00am 22.7 23.2 16.6 68 3.7 NE 9 11 5 6 1016.6 1016.6 0.0
 
Date/Time
EDT
Temp
°C
App
Temp
°C
Dew
Point
°C
Rel
Hum
%
Delta-T
°C
Wind Press
QNH
hPa
Press
MSL
hPa
Rain since
9am
mm
Dir  Spd
km/h
Gust
km/h
Spd
kts
Gust
kts
03/11:30pm 22.8 23.7 16.6 68 3.8 NNE 7 11 4 6 1016.7 1016.7 0.0
03/11:00pm 21.9 22.4 16.5 71 3.3 N 9 11 5 6 1016.7 1016.7 0.0
03/10:30pm 21.5 21.2 16.5 73 3.0 NE 13 15 7 8 1016.5 1016.5 0.0
03/10:00pm 21.2 21.0 16.6 75 2.8 NE 13 17 7 9 1016.3 1016.3 0.0
03/09:30pm 21.1 20.7 16.3 74 2.9 NE 13 15 7 8 1016.1 1016.1 0.0
03/09:00pm 21.3 20.4 15.8 71 3.3 ENE 15 19 8 10 1015.8 1015.8 0.0
03/08:30pm 21.3 20.7 15.6 70 3.4 ENE 13 19 7 10 1015.5 1015.5 0.0
03/08:00pm 21.5 20.7 16.0 71 3.3 E 15 19 8 10 1015.3 1015.3 0.0
03/07:30pm 21.6 19.8 15.6 68 3.6 E 19 24 10 13 1014.7 1014.7 0.0
03/07:00pm 22.4 20.6 15.5 65 4.1 E 19 26 10 14 1014.3 1014.3 0.0
03/06:30pm 22.8 20.7 15.1 62 4.6 E 20 28 11 15 1014.3 1014.3 0.0
03/06:00pm 23.2 20.9 14.6 58 5.1 E 20 30 11 16 1014.1 1014.1 0.0
03/05:30pm 23.3 20.6 14.7 58 5.1 ESE 22 30 12 16 1013.8 1013.8 0.0
03/05:00pm 24.0 21.3 14.6 55 5.6 ESE 22 28 12 15 1013.9 1013.9 0.0
03/04:30pm 24.1 21.7 14.3 54 5.8 E 20 28 11 15 1014.0 1014.0 0.0
03/04:00pm 25.1 22.7 14.3 51 6.4 ESE 20 32 11 17 1014.3 1014.3 0.0
03/03:30pm 23.9 21.1 14.2 54 5.7 ESE 22 30 12 16 1014.6 1014.6 0.0
03/03:00pm 24.8 21.9 14.1 51 6.3 SE 22 30 12 16 1014.9 1014.9 0.0
03/02:30pm 24.1 20.8 14.9 56 5.5 SE 26 33 14 18 1015.0 1015.0 0.0
03/02:00pm 24.4 21.2 15.4 57 5.4 SE 26 30 14 16 1015.2 1015.2 0.0
03/01:30pm 23.9 20.7 14.2 54 5.7 SE 24 30 13 16 1015.4 1015.4 0.0
03/01:00pm 24.0 20.7 14.1 54 5.8 SE 24 32 13 17 1015.6 1015.6 0.0
03/12:30pm 24.7 21.7 14.8 54 5.9 SE 24 28 13 15 1015.7 1015.7 0.0
03/12:00pm 25.1 22.4 15.5 55 5.8 SE 24 30 13 16 1016.1 1016.1 0.0
03/11:30am 24.0 21.7 15.7 59 5.0 ESE 22 26 12 14 1015.9 1015.9 0.0
03/11:00am 24.7 22.1 16.0 58 5.3 SE 24 30 13 16 1016.1 1016.1 0.0
03/10:30am 23.7 22.1 16.5 64 4.4 SE 20 26 11 14 1016.2 1016.2 0.0
03/10:00am 23.1 21.5 16.4 66 4.1 S 20 26 11 14 1016.4 1016.4 0.0
03/09:30am 22.5 21.2 16.8 70 3.5 S 19 24 10 13 1016.3 1016.3 0.0
03/09:00am 22.3 21.3 16.7 70 3.4 S 17 20 9 11 1016.1 1016.1 0.0
03/08:30am 21.9 20.8 16.3 70 3.4 S 17 20 9 11 1016.0 1016.0 0.0
03/08:00am 21.6 20.6 16.5 73 3.1 SSE 17 20 9 11 1016.0 1016.0 0.0
03/07:30am 21.3 20.4 16.9 76 2.7 SSE 17 20 9 11 1015.6 1015.6 0.0
03/07:00am 21.4 21.0 17.2 77 2.6 SSE 15 19 8 10 1015.1 1015.1 0.0
03/06:30am 21.0 20.3 17.4 80 2.2 SSE 17 20 9 11 1014.8 1014.8 0.0
03/06:00am 21.1 20.0 17.2 78 2.4 SSE 19 22 10 12 1014.5 1014.5 0.0
03/05:30am 21.1 20.0 17.4 79 2.3 SSE 19 26 10 14 1014.2 1014.2 0.0
03/05:00am 21.1 21.2 17.5 80 2.2 SSE 13 17 7 9 1013.9 1013.9 0.0
03/04:30am 21.0 20.3 17.4 80 2.2 SSE 17 24 9 13 1013.6 1013.6 0.0
03/04:00am 20.8 19.9 17.7 82 1.9 SSE 19 26 10 14 1013.4 1013.4 0.0
03/03:30am 21.0 19.2 17.8 82 2.0 SSE 24 30 13 16 1013.2 1013.2 0.0
03/03:00am 20.9 19.2 18.0 83 1.8 SSE 24 33 13 18 1012.9 1012.9 0.0
03/02:30am 21.0 18.6 18.3 84 1.7 SSE 28 37 15 20 1012.7 1012.7 0.0
03/02:00am 21.0 18.8 18.6 86 1.5 SSE 28 37 15 20 1013.1 1013.1 0.0
03/01:30am 21.2 18.2 18.6 85 1.6 SSE 32 39 17 21 1013.1 1013.1 0.0
03/01:00am 21.3 19.0 19.4 89 1.2 SSE 30 35 16 19 1013.4 1013.4 0.0
03/12:30am 21.2 18.6 19.6 90 1.0 S 32 41 17 22 1013.5 1013.5 0.0
03/12:00am 21.4 18.6 19.5 89 1.2 S 33 43 18 23 1013.6 1013.6 0.0
 
Date/Time
EDT
Temp
°C
App
Temp
°C
Dew
Point
°C
Rel
Hum
%
Delta-T
°C
Wind Press
QNH
hPa
Press
MSL
hPa
Rain since
9am
mm
Dir  Spd
km/h
Gust
km/h
Spd
kts
Gust
kts
02/11:30pm 21.5 17.6 19.6 89 1.2 S 39 52 21 28 1013.4 1013.4 0.0
02/11:04pm 21.7 17.0 19.8 89 1.2 S 44 67 24 36 1013.1 1013.1 0.0
02/11:00pm 21.9 17.4 19.9 88 1.3 S 43 54 23 29 1013.1 1013.1 0.0
02/10:30pm 22.2 17.4 19.7 86 1.6 S 44 63 24 34 1012.7 1012.7 0.0
02/10:00pm 22.4 18.0 20.2 87 1.4 SSW 43 57 23 31 1012.4 1012.4 0.0
02/09:30pm 22.7 18.1 20.1 85 1.7 SSW 44 56 24 30 1012.0 1012.0 0.0
02/09:20pm 22.8 18.3 19.8 83 1.9 SSW 43 61 23 33 1011.8 1011.8 0.0
02/09:00pm 23.2 19.5 19.9 82 2.1 SSW 39 52 21 28 1011.5 1011.5 0.0
02/08:30pm 24.3 19.4 19.1 73 3.3 SSW 43 57 23 31 1010.7 1010.7 0.0
02/08:21pm 27.3 24.2 14.5 45 7.7 W 24 57 13 31 1010.5 1010.5 0.0
02/08:00pm 31.5 26.6 6.7 21 13.4 WNW 22 30 12 16 1009.7 1009.7 0.0
02/07:30pm 32.3 30.4 6.7 20 13.9 SW 6 17 3 9 1009.1 1009.1 0.0
02/07:00pm 32.6 29.7 6.3 19 14.2 E 11 13 6 7 1008.8 1008.8 0.0
02/06:30pm 32.1 30.2 7.6 21 13.5 N 7 11 4 6 1008.4 1008.4 0.0
02/06:00pm 31.5 27.6 7.0 21 13.3 NE 17 24 9 13 1008.4 1008.4 0.0
02/05:30pm 31.7 26.7 3.8 17 14.4 NNE 19 22 10 12 1008.6 1008.6 0.0
02/05:00pm 30.3 27.2 5.4 20 13.1 ENE 11 15 6 8 1008.7 1008.7 0.0
02/04:30pm 30.8 26.3 4.4 19 13.7 E 17 19 9 10 1008.3 1008.3 0.0
02/04:00pm 32.0 26.9 3.0 16 14.8 E 19 26 10 14 1007.8 1007.8 0.0
02/03:30pm 33.2 27.1 4.6 16 15.1 E 26 30 14 16 1007.6 1007.6 0.0
02/03:00pm 33.7 27.1 4.2 15 15.5 E 28 33 15 18 1007.4 1007.4 0.0
02/02:30pm 32.6 26.5 5.0 17 14.6 E 26 33 14 18 1007.3 1007.3 0.0
02/02:00pm 32.9 26.0 4.6 17 14.9 E 30 33 16 18 1007.1 1007.1 0.0
02/01:30pm 34.5 29.8 6.0 17 15.4 ESE 20 28 11 15 1006.8 1006.8 0.0
02/01:00pm 33.8 30.5 6.5 18 14.9 SE 13 26 7 14 1007.1 1007.1 0.0
02/12:30pm 33.0 29.6 5.9 18 14.5 SSW 13 19 7 10 1007.3 1007.3 0.0
02/12:00pm 34.0 30.4 4.9 16 15.5 W 13 20 7 11 1007.5 1007.5 0.0
02/11:30am 32.6 28.7 3.6 16 15.0 W 13 17 7 9 1007.8 1007.8 0.0
02/11:00am 31.3 27.4 7.3 22 13.1 WSW 17 22 9 12 1007.9 1007.9 0.0
02/10:30am 30.8 28.1 5.4 20 13.4 W 9 13 5 7 1007.9 1007.9 0.0
02/10:00am 30.6 27.9 7.2 23 12.7 WNW 11 13 6 7 1008.0 1008.0 0.0
02/09:30am 30.2 26.9 7.9 24 12.2 W 15 24 8 13 1008.2 1008.2 0.0

Latest Capital City Observations: Canberra | Sydney | Melbourne | Brisbane | Adelaide | Perth | Hobart | Darwin

Other Formats:

Comma delimited format used in spreadsheet applications
http://www.bom.gov.au/fwo/IDN60901/IDN60901.94767.axf

JavaScript Object Notation format (JSON) in row-major order
http://www.bom.gov.au/fwo/IDN60901/IDN60901.94767.json